Aviation Digital Data Service (ADDS)

Output produced by METARs form (0029 UTC 24 May 2017)
found at http://aviationweather.gov/adds/metars/
 
METAR text: KCVH 240005Z AUTO 26012G16KT 10SM CLR 19/10 A2997 RMK AO1
Conditions at: KCVH (HOLLISTER MUNI , CA, US) observed 0005 UTC 24 May 2017
Temperature: 19.0°C (66°F)
Dewpoint: 10.0°C (50°F) [RH = 56%]
Pressure (altimeter): 29.97 inches Hg (1015.0 mb)
Winds: from the W (260 degrees) at 14 MPH (12 knots; 6.2 m/s)
gusting to 18 MPH (16 knots; 8.3 m/s)
Visibility: 10 or more miles (16+ km)
Ceiling: at least 12,000 feet AGL
Clouds: sky clear below 12,000 feet AGL
Weather: automated observation with no human augmentation;
there may or may not be significant weather present at this time